Time;durP1;ratioP1;P1;durP2;ratioP2;P2;SDS_P1;SDS_P2;PMS_P1;PMS_P2;Temp;Humidity;BMP_temperature;BMP_pressure;BME280_temperature;BME280_humidity;BME280_pressure;Samples;Min_cycle;Max_cycle;Signal;HPM_P1;HPM_P2
2023/06/22 00:00:51;;;;;;;8.95;3.85;;;;;;;;;;5023263;28;20102;-69
2023/06/22 00:03:21;;;;;;;10.55;4.22;;;;;;;;;;5020969;28;20057;-68
2023/06/22 00:05:47;;;;;;;8.68;4.00;;;;;;;;;;5023055;28;20080;-68
2023/06/22 00:08:14;;;;;;;7.18;3.78;;;;;;;;;;5031494;28;20123;-68
2023/06/22 00:10:40;;;;;;;8.50;4.03;;;;;;;;;;5022721;28;20049;-68
2023/06/22 00:13:07;;;;;;;10.75;4.32;;;;;;;;;;5029355;28;20051;-69
2023/06/22 00:15:33;;;;;;;7.47;3.53;;;;;;;;;;5025384;28;21467;-69
2023/06/22 00:17:59;;;;;;;11.40;3.85;;;;;;;;;;5028064;28;20136;-69
2023/06/22 00:20:28;;;;;;;10.95;4.07;;;;;;;;;;5029867;28;20647;-69
2023/06/22 00:22:57;;;;;;;6.90;3.50;;;;;;;;;;5029094;28;20053;-68
2023/06/22 00:25:23;;;;;;;10.70;3.72;;;;;;;;;;5021843;28;20079;-69
2023/06/22 00:27:49;;;;;;;11.68;3.42;;;;;;;;;;5022477;28;20053;-69
2023/06/22 00:30:18;;;;;;;6.03;3.33;;;;;;;;;;5028338;28;20202;-69
2023/06/22 00:32:45;;;;;;;12.32;3.50;;;;;;;;;;5022812;28;20049;-69
2023/06/22 00:35:12;;;;;;;11.55;3.83;;;;;;;;;;5021853;28;20107;-69
2023/06/22 00:37:40;;;;;;;8.75;4.00;;;;;;;;;;5022880;28;20049;-68
2023/06/22 00:40:07;;;;;;;9.13;3.78;;;;;;;;;;5021073;28;20049;-69
2023/06/22 00:42:34;;;;;;;9.75;3.60;;;;;;;;;;5023510;28;20033;-69
2023/06/22 00:44:59;;;;;;;12.20;4.00;;;;;;;;;;5025866;28;20054;-69
2023/06/22 00:47:25;;;;;;;10.32;3.97;;;;;;;;;;5021141;28;20060;-69
2023/06/22 00:49:51;;;;;;;10.82;3.47;;;;;;;;;;5020516;28;20048;-68
2023/06/22 00:52:20;;;;;;;12.02;3.60;;;;;;;;;;5019790;28;20049;-69
2023/06/22 00:54:48;;;;;;;12.77;4.05;;;;;;;;;;5025647;28;20056;-68
2023/06/22 00:57:17;;;;;;;6.68;3.35;;;;;;;;;;5024914;28;20037;-70
2023/06/22 00:59:44;;;;;;;7.55;3.92;;;;;;;;;;5025774;28;20044;-70
2023/06/22 01:02:10;;;;;;;6.57;3.60;;;;;;;;;;5026036;28;20613;-69
2023/06/22 01:04:37;;;;;;;11.43;4.10;;;;;;;;;;5028170;28;20133;-69
2023/06/22 01:07:30;;;;;;;9.32;4.10;;;;;;;;;;5021895;28;20060;-69
2023/06/22 01:09:59;;;;;;;7.75;3.67;;;;;;;;;;5020221;28;20136;-69
2023/06/22 01:12:29;;;;;;;11.38;4.05;;;;;;;;;;5018754;28;20402;-69
2023/06/22 01:15:01;;;;;;;10.75;4.20;;;;;;;;;;5024093;28;20196;-68
2023/06/22 01:17:28;;;;;;;9.48;4.30;;;;;;;;;;5033822;28;20135;-68
2023/06/22 01:19:55;;;;;;;9.48;4.15;;;;;;;;;;5020067;28;20485;-72
2023/06/22 01:22:28;;;;;;;11.40;4.65;;;;;;;;;;5029565;28;20045;-69
2023/06/22 01:25:28;;;;;;;11.38;4.78;;;;;;;;;;5020897;28;20559;-69
2023/06/22 01:28:05;;;;;;;15.52;4.70;;;;;;;;;;5002140;28;20490;-70
2023/06/22 01:30:33;;;;;;;11.68;4.65;;;;;;;;;;5022554;28;20040;-69
2023/06/22 01:33:01;;;;;;;10.40;4.75;;;;;;;;;;5019185;28;20053;-70
2023/06/22 01:35:28;;;;;;;10.75;4.85;;;;;;;;;;5019490;28;20049;-69
2023/06/22 01:37:54;;;;;;;9.57;5.03;;;;;;;;;;5019947;28;20115;-69
2023/06/22 01:40:21;;;;;;;11.63;5.32;;;;;;;;;;5019700;28;20115;-69
2023/06/22 01:42:48;;;;;;;10.07;5.45;;;;;;;;;;5021383;28;20588;-70
2023/06/22 01:45:14;;;;;;;11.15;4.55;;;;;;;;;;5020023;28;20049;-69
2023/06/22 01:47:40;;;;;;;14.45;5.70;;;;;;;;;;5027325;28;20132;-69
2023/06/22 01:50:07;;;;;;;7.43;4.88;;;;;;;;;;5020011;28;20154;-69
2023/06/22 01:52:33;;;;;;;9.48;5.40;;;;;;;;;;5020580;28;20144;-70
2023/06/22 01:54:59;;;;;;;9.88;5.28;;;;;;;;;;5020356;28;20045;-69
2023/06/22 01:57:26;;;;;;;9.82;5.38;;;;;;;;;;5019818;28;20704;-69
2023/06/22 02:00:07;;;;;;;12.20;5.70;;;;;;;;;;5020864;28;20041;-69
2023/06/22 02:02:53;;;;;;;8.95;4.82;;;;;;;;;;5019270;28;20060;-69
2023/06/22 02:05:19;;;;;;;10.85;5.47;;;;;;;;;;5032453;28;20049;-69
2023/06/22 02:07:56;;;;;;;12.13;5.25;;;;;;;;;;5020514;28;20796;-69
2023/06/22 02:10:24;;;;;;;11.27;5.05;;;;;;;;;;5020306;28;20524;-68
2023/06/22 02:12:51;;;;;;;11.95;5.32;;;;;;;;;;5019279;28;20045;-69
2023/06/22 02:15:17;;;;;;;8.70;5.20;;;;;;;;;;5021221;28;20080;-69
2023/06/22 02:17:44;;;;;;;16.20;5.45;;;;;;;;;;5019142;28;20084;-69
2023/06/22 02:20:14;;;;;;;17.38;5.22;;;;;;;;;;5018578;28;20042;-69
2023/06/22 02:22:41;;;;;;;11.18;5.45;;;;;;;;;;5023702;28;20572;-68
2023/06/22 02:25:09;;;;;;;14.40;6.22;;;;;;;;;;5014751;28;20049;-68
2023/06/22 02:27:35;;;;;;;10.25;5.60;;;;;;;;;;5019842;28;20045;-68
2023/06/22 02:30:00;;;;;;;15.10;5.85;;;;;;;;;;5021121;28;20064;-68
2023/06/22 02:32:26;;;;;;;8.80;5.93;;;;;;;;;;5027027;28;20045;-68
2023/06/22 02:34:52;;;;;;;14.07;6.03;;;;;;;;;;5024254;28;20179;-68
2023/06/22 02:37:18;;;;;;;16.23;6.18;;;;;;;;;;5020890;28;20081;-70
2023/06/22 02:39:43;;;;;;;11.82;6.30;;;;;;;;;;5018590;28;20081;-68
2023/06/22 02:42:10;;;;;;;15.80;6.85;;;;;;;;;;5019733;28;20131;-68
2023/06/22 02:44:36;;;;;;;12.77;6.50;;;;;;;;;;5026093;28;20394;-69
2023/06/22 02:47:02;;;;;;;14.27;6.45;;;;;;;;;;5020748;28;20107;-69
2023/06/22 02:49:27;;;;;;;16.88;6.97;;;;;;;;;;5028919;28;20048;-69
2023/06/22 02:51:54;;;;;;;13.40;6.40;;;;;;;;;;5018744;28;20045;-70
2023/06/22 02:54:21;;;;;;;11.98;6.45;;;;;;;;;;5025878;28;20571;-70
2023/06/22 02:56:50;;;;;;;15.52;7.10;;;;;;;;;;5020538;28;20037;-70
2023/06/22 02:59:17;;;;;;;14.40;6.80;;;;;;;;;;5017360;28;20120;-69
2023/06/22 03:01:44;;;;;;;13.68;7.15;;;;;;;;;;5019369;28;20045;-69
2023/06/22 03:04:20;;;;;;;14.38;7.40;;;;;;;;;;5017969;28;20138;-69
2023/06/22 03:06:50;;;;;;;16.67;7.10;;;;;;;;;;5001708;28;20502;-70
2023/06/22 03:09:16;;;;;;;16.33;6.70;;;;;;;;;;5033565;28;20061;-71
2023/06/22 03:11:42;;;;;;;12.35;7.18;;;;;;;;;;5035207;28;20569;-70
2023/06/22 03:14:07;;;;;;;15.43;6.43;;;;;;;;;;5017933;28;20136;-71
2023/06/22 03:16:33;;;;;;;13.82;6.82;;;;;;;;;;5033232;28;20049;-71
2023/06/22 03:18:59;;;;;;;14.50;7.35;;;;;;;;;;5033525;28;20052;-70
2023/06/22 03:21:28;;;;;;;12.80;7.25;;;;;;;;;;5003903;28;20045;-71
2023/06/22 03:23:54;;;;;;;15.75;8.00;;;;;;;;;;5028300;28;20060;-71
2023/06/22 03:26:20;;;;;;;17.05;7.47;;;;;;;;;;5020604;28;20041;-70
2023/06/22 03:28:45;;;;;;;22.60;7.30;;;;;;;;;;5020844;28;20061;-71
2023/06/22 03:31:11;;;;;;;13.48;7.50;;;;;;;;;;5022619;28;20503;-70
2023/06/22 03:33:39;;;;;;;16.23;7.28;;;;;;;;;;5007074;28;20057;-70
2023/06/22 03:36:04;;;;;;;14.75;7.28;;;;;;;;;;5039857;28;20041;-70
2023/06/22 03:38:30;;;;;;;15.02;7.03;;;;;;;;;;5024367;28;20047;-70
2023/06/22 03:40:57;;;;;;;12.27;6.38;;;;;;;;;;5021823;28;20045;-73
2023/06/22 03:43:23;;;;;;;17.65;7.05;;;;;;;;;;5038552;28;20045;-70
2023/06/22 03:45:48;;;;;;;14.63;7.15;;;;;;;;;;5023518;28;20099;-70
2023/06/22 03:48:14;;;;;;;14.90;6.55;;;;;;;;;;5036438;28;20530;-70
2023/06/22 03:50:39;;;;;;;10.27;7.00;;;;;;;;;;5023364;28;20049;-69
2023/06/22 03:53:05;;;;;;;15.95;5.50;;;;;;;;;;5022744;28;20048;-70
2023/06/22 03:55:30;;;;;;;13.18;5.72;;;;;;;;;;5023099;28;20045;-70
2023/06/22 03:57:57;;;;;;;14.82;5.18;;;;;;;;;;5023215;28;20049;-70
2023/06/22 04:00:25;;;;;;;14.48;4.78;;;;;;;;;;5022579;28;20049;-70
2023/06/22 04:02:50;;;;;;;12.10;5.38;;;;;;;;;;4996876;28;20060;-70
2023/06/22 04:05:19;;;;;;;7.68;4.30;;;;;;;;;;5026098;28;20060;-70
2023/06/22 04:07:44;;;;;;;11.35;4.72;;;;;;;;;;5029517;28;20151;-70
2023/06/22 04:10:10;;;;;;;9.93;4.15;;;;;;;;;;5029384;28;20128;-69
2023/06/22 04:12:35;;;;;;;7.82;4.20;;;;;;;;;;5029762;28;20407;-68
2023/06/22 04:15:01;;;;;;;11.18;4.57;;;;;;;;;;5030118;28;20049;-70
2023/06/22 04:17:26;;;;;;;8.43;4.10;;;;;;;;;;5031005;28;20048;-69
2023/06/22 04:19:52;;;;;;;12.48;4.22;;;;;;;;;;5032257;28;20040;-69
2023/06/22 04:22:20;;;;;;;8.88;4.47;;;;;;;;;;5030431;28;20073;-70
2023/06/22 04:24:46;;;;;;;11.25;4.68;;;;;;;;;;5032376;28;20044;-70
2023/06/22 04:27:11;;;;;;;17.00;5.30;;;;;;;;;;5031242;28;20100;-69
2023/06/22 04:29:38;;;;;;;10.60;4.10;;;;;;;;;;5022965;28;20084;-69
2023/06/22 04:32:06;;;;;;;12.32;4.18;;;;;;;;;;5028754;28;20390;-69
2023/06/22 04:34:31;;;;;;;8.73;4.10;;;;;;;;;;5030292;28;20083;-70
2023/06/22 04:36:57;;;;;;;8.50;3.95;;;;;;;;;;5029461;28;20049;-75
2023/06/22 04:39:23;;;;;;;12.88;4.72;;;;;;;;;;5026749;28;20494;-69
2023/06/22 04:41:50;;;;;;;12.32;4.72;;;;;;;;;;5028943;28;20159;-71
2023/06/22 04:44:26;;;;;;;8.50;4.32;;;;;;;;;;5027634;28;20103;-70
2023/06/22 04:47:03;;;;;;;9.77;4.72;;;;;;;;;;5031968;28;20350;-72
2023/06/22 04:49:33;;;;;;;6.47;4.18;;;;;;;;;;5005472;28;20122;-71
2023/06/22 04:52:00;;;;;;;15.80;4.85;;;;;;;;;;5025703;28;20045;-71
2023/06/22 04:54:25;;;;;;;10.75;4.68;;;;;;;;;;5031340;28;20040;-72
2023/06/22 04:56:56;;;;;;;7.28;4.40;;;;;;;;;;5027744;28;20060;-71
2023/06/22 04:59:29;;;;;;;11.52;4.03;;;;;;;;;;5029818;28;20049;-70
2023/06/22 05:02:01;;;;;;;12.73;4.57;;;;;;;;;;5031708;28;20060;-68
2023/06/22 05:04:27;;;;;;;14.88;4.75;;;;;;;;;;5027529;28;20038;-70
2023/06/22 05:06:54;;;;;;;11.15;5.10;;;;;;;;;;5025994;28;20053;-70
2023/06/22 05:09:20;;;;;;;8.68;4.38;;;;;;;;;;5022731;28;20049;-70
2023/06/22 05:11:46;;;;;;;10.85;4.53;;;;;;;;;;5028080;28;20103;-71
2023/06/22 05:14:12;;;;;;;13.10;4.32;;;;;;;;;;5030194;28;20048;-71
2023/06/22 05:16:38;;;;;;;11.65;4.00;;;;;;;;;;5021361;28;20049;-72
2023/06/22 05:19:04;;;;;;;11.43;4.60;;;;;;;;;;5025204;28;20140;-71
2023/06/22 05:21:30;;;;;;;9.55;4.28;;;;;;;;;;5026572;28;20051;-72
2023/06/22 05:23:59;;;;;;;10.27;4.43;;;;;;;;;;5030540;28;20051;-72
2023/06/22 05:26:26;;;;;;;12.68;5.20;;;;;;;;;;5025168;28;20494;-72
2023/06/22 05:28:51;;;;;;;13.65;4.72;;;;;;;;;;5029186;28;20057;-72
2023/06/22 05:31:19;;;;;;;11.07;3.85;;;;;;;;;;5030044;28;20060;-72
2023/06/22 05:33:45;;;;;;;11.50;4.38;;;;;;;;;;5028546;28;20045;-72
2023/06/22 05:36:12;;;;;;;11.35;4.30;;;;;;;;;;5027847;28;20041;-72
2023/06/22 05:38:38;;;;;;;13.57;4.78;;;;;;;;;;5022488;28;20052;-73
2023/06/22 05:41:04;;;;;;;12.25;4.43;;;;;;;;;;5021065;28;20055;-73
2023/06/22 05:43:30;;;;;;;17.60;5.10;;;;;;;;;;5011766;28;20049;-72
2023/06/22 05:45:55;;;;;;;11.48;4.47;;;;;;;;;;5021349;28;20080;-72
2023/06/22 05:48:21;;;;;;;10.30;4.30;;;;;;;;;;5019088;28;20061;-72
2023/06/22 05:50:46;;;;;;;12.75;4.82;;;;;;;;;;5019109;28;20045;-72
2023/06/22 05:53:12;;;;;;;13.88;4.68;;;;;;;;;;5020354;28;20045;-73
2023/06/22 05:55:37;;;;;;;9.52;4.55;;;;;;;;;;5036097;28;20045;-70
2023/06/22 05:58:05;;;;;;;14.75;4.75;;;;;;;;;;5020730;28;20136;-72
2023/06/22 06:00:31;;;;;;;15.88;5.15;;;;;;;;;;5028236;28;20063;-73
2023/06/22 06:02:57;;;;;;;12.23;5.32;;;;;;;;;;5036011;28;20049;-72
2023/06/22 06:05:23;;;;;;;18.42;5.57;;;;;;;;;;5018564;28;20086;-71
2023/06/22 06:07:49;;;;;;;16.17;5.63;;;;;;;;;;5026165;28;20056;-72
2023/06/22 06:10:15;;;;;;;12.38;5.65;;;;;;;;;;5019454;28;20053;-72
2023/06/22 06:12:40;;;;;;;14.90;4.93;;;;;;;;;;5020083;28;20045;-71
2023/06/22 06:15:06;;;;;;;13.43;5.05;;;;;;;;;;5019945;28;20142;-73
2023/06/22 06:17:32;;;;;;;13.23;4.72;;;;;;;;;;5020623;28;20264;-73
2023/06/22 06:19:59;;;;;;;9.35;4.75;;;;;;;;;;5020700;28;20052;-72
2023/06/22 06:22:24;;;;;;;12.15;5.15;;;;;;;;;;5019565;28;20049;-71
2023/06/22 06:24:50;;;;;;;11.65;4.32;;;;;;;;;;5036296;28;20048;-72
2023/06/22 06:27:18;;;;;;;11.60;4.45;;;;;;;;;;5018376;28;20204;-72
2023/06/22 06:29:45;;;;;;;14.65;5.18;;;;;;;;;;5020543;28;20049;-70
2023/06/22 06:32:11;;;;;;;12.75;4.68;;;;;;;;;;5019274;28;20406;-71
2023/06/22 06:34:36;;;;;;;13.43;4.82;;;;;;;;;;5033947;28;20044;-71
2023/06/22 06:37:02;;;;;;;13.60;4.60;;;;;;;;;;5019158;28;20436;-72
2023/06/22 06:39:27;;;;;;;13.80;5.30;;;;;;;;;;5021097;28;20045;-70
2023/06/22 06:41:52;;;;;;;12.13;4.55;;;;;;;;;;5025940;28;20110;-72
2023/06/22 06:44:19;;;;;;;16.17;4.55;;;;;;;;;;5019468;28;20045;-71
2023/06/22 06:46:44;;;;;;;14.20;5.07;;;;;;;;;;5020242;28;20029;-72
2023/06/22 06:49:10;;;;;;;11.73;5.25;;;;;;;;;;5019083;28;20457;-72
2023/06/22 06:51:35;;;;;;;12.63;4.63;;;;;;;;;;5020299;28;20041;-70
2023/06/22 06:54:03;;;;;;;13.48;4.85;;;;;;;;;;5018579;28;20494;-71
2023/06/22 06:56:29;;;;;;;11.73;4.70;;;;;;;;;;5018754;28;20045;-70
2023/06/22 06:58:58;;;;;;;11.88;4.97;;;;;;;;;;5020258;28;20049;-71
2023/06/22 07:01:23;;;;;;;13.45;5.13;;;;;;;;;;5023924;28;20094;-72
2023/06/22 07:03:49;;;;;;;11.75;4.50;;;;;;;;;;5020151;28;20292;-70
2023/06/22 07:06:16;;;;;;;11.57;5.18;;;;;;;;;;5018986;28;20490;-70
2023/06/22 07:08:42;;;;;;;10.70;4.85;;;;;;;;;;5019593;28;20080;-70
2023/06/22 07:11:08;;;;;;;12.90;4.85;;;;;;;;;;5019393;28;20049;-71
2023/06/22 07:13:33;;;;;;;11.35;4.82;;;;;;;;;;5028087;28;20103;-71
2023/06/22 07:15:59;;;;;;;16.73;5.18;;;;;;;;;;5020189;28;20037;-72
2023/06/22 07:18:24;;;;;;;15.63;4.53;;;;;;;;;;5032249;28;20051;-72
2023/06/22 07:20:49;;;;;;;11.43;5.13;;;;;;;;;;5020838;28;20087;-72
2023/06/22 07:23:17;;;;;;;12.77;5.18;;;;;;;;;;5019472;28;20076;-72
2023/06/22 07:25:42;;;;;;;10.05;4.22;;;;;;;;;;5019827;28;20057;-71
2023/06/22 07:28:08;;;;;;;9.57;4.50;;;;;;;;;;5017092;28;20579;-72
2023/06/22 07:30:34;;;;;;;15.77;5.20;;;;;;;;;;5019602;28;20462;-70
2023/06/22 07:33:03;;;;;;;12.70;5.15;;;;;;;;;;5017921;28;20076;-73
2023/06/22 07:35:30;;;;;;;10.27;5.10;;;;;;;;;;5019965;28;20445;-71
2023/06/22 07:37:56;;;;;;;12.73;5.10;;;;;;;;;;5019810;28;20466;-72
2023/06/22 07:40:21;;;;;;;17.33;5.05;;;;;;;;;;5019743;28;20149;-71
2023/06/22 07:42:48;;;;;;;12.38;4.88;;;;;;;;;;5019629;28;20046;-71
2023/06/22 07:45:13;;;;;;;12.10;5.03;;;;;;;;;;5019226;28;20052;-70
2023/06/22 07:47:39;;;;;;;9.40;4.60;;;;;;;;;;5019602;28;20053;-71
2023/06/22 07:50:05;;;;;;;20.17;5.40;;;;;;;;;;5015904;28;20049;-71
2023/06/22 07:52:31;;;;;;;11.90;5.15;;;;;;;;;;5027673;28;20132;-71
2023/06/22 07:54:56;;;;;;;12.27;5.10;;;;;;;;;;5019761;28;20156;-70
2023/06/22 07:57:22;;;;;;;12.52;5.10;;;;;;;;;;5034118;28;20056;-71
2023/06/22 07:59:47;;;;;;;9.68;5.63;;;;;;;;;;5018037;28;20049;-70
2023/06/22 08:02:13;;;;;;;10.77;4.78;;;;;;;;;;5027399;28;20046;-70
2023/06/22 08:04:39;;;;;;;10.52;4.57;;;;;;;;;;5019241;28;20049;-72
2023/06/22 08:07:05;;;;;;;11.70;5.13;;;;;;;;;;5029366;28;20594;-72
2023/06/22 08:09:32;;;;;;;11.57;5.35;;;;;;;;;;5021102;28;20065;-71
2023/06/22 08:11:59;;;;;;;13.00;5.13;;;;;;;;;;5018683;28;20144;-71
2023/06/22 08:14:27;;;;;;;16.00;5.72;;;;;;;;;;5020928;28;20046;-70
2023/06/22 08:16:53;;;;;;;18.05;5.28;;;;;;;;;;5023253;28;20046;-72
2023/06/22 08:19:18;;;;;;;15.05;4.93;;;;;;;;;;5021954;28;20056;-71
2023/06/22 08:21:44;;;;;;;14.57;4.78;;;;;;;;;;5021598;28;20395;-72
2023/06/22 08:24:09;;;;;;;11.55;5.20;;;;;;;;;;5035039;28;20076;-72
2023/06/22 08:26:37;;;;;;;18.02;5.35;;;;;;;;;;5024162;28;20149;-71
2023/06/22 08:29:03;;;;;;;17.05;5.70;;;;;;;;;;5021954;28;20104;-70
2023/06/22 08:31:29;;;;;;;11.98;4.82;;;;;;;;;;5022489;28;20510;-70
2023/06/22 08:33:54;;;;;;;13.23;4.65;;;;;;;;;;5021109;28;20060;-72
2023/06/22 08:36:19;;;;;;;13.95;4.80;;;;;;;;;;5022200;28;20081;-72
2023/06/22 08:38:50;;;;;;;12.02;4.53;;;;;;;;;;5022318;28;20221;-72
2023/06/22 08:41:16;;;;;;;9.93;5.20;;;;;;;;;;5029990;28;20045;-72
2023/06/22 08:43:43;;;;;;;13.68;5.65;;;;;;;;;;5022318;28;20280;-73
2023/06/22 08:46:08;;;;;;;14.15;5.20;;;;;;;;;;5017058;28;20045;-74
2023/06/22 08:48:33;;;;;;;11.80;4.97;;;;;;;;;;5021267;28;20387;-70
2023/06/22 08:50:59;;;;;;;11.57;5.30;;;;;;;;;;5021876;28;20053;-72
2023/06/22 08:53:24;;;;;;;13.98;4.90;;;;;;;;;;5020626;28;20053;-72
2023/06/22 08:55:50;;;;;;;10.55;5.07;;;;;;;;;;5021470;28;20037;-71
2023/06/22 08:58:16;;;;;;;13.63;5.32;;;;;;;;;;5021884;28;20045;-71
2023/06/22 09:00:41;;;;;;;12.85;4.50;;;;;;;;;;5022069;28;20045;-70
2023/06/22 09:03:07;;;;;;;15.10;5.57;;;;;;;;;;5021258;28;20045;-72
2023/06/22 09:05:33;;;;;;;17.77;6.03;;;;;;;;;;5021735;28;20053;-73
2023/06/22 09:07:58;;;;;;;9.98;5.25;;;;;;;;;;5034745;28;20056;-73
2023/06/22 09:10:24;;;;;;;9.75;4.50;;;;;;;;;;5024610;28;20041;-73
2023/06/22 09:12:50;;;;;;;11.90;4.90;;;;;;;;;;5022078;28;20132;-73
2023/06/22 09:15:15;;;;;;;14.32;4.82;;;;;;;;;;5021206;28;20140;-71
2023/06/22 09:17:41;;;;;;;17.67;5.55;;;;;;;;;;5028590;28;20403;-72
2023/06/22 09:20:10;;;;;;;12.13;5.18;;;;;;;;;;5021712;28;20422;-72
2023/06/22 09:22:35;;;;;;;13.95;4.80;;;;;;;;;;5021374;28;20052;-71
2023/06/22 09:25:01;;;;;;;15.52;5.15;;;;;;;;;;5020073;28;20430;-74
2023/06/22 09:27:26;;;;;;;19.67;5.43;;;;;;;;;;5021610;28;20049;-73
2023/06/22 09:29:52;;;;;;;14.85;5.70;;;;;;;;;;5020563;28;20053;-71
2023/06/22 09:32:17;;;;;;;20.02;4.90;;;;;;;;;;5021247;28;20045;-71
2023/06/22 09:34:43;;;;;;;13.15;5.20;;;;;;;;;;5021592;28;20045;-73
2023/06/22 09:37:08;;;;;;;16.00;5.28;;;;;;;;;;5019684;28;20045;-72
2023/06/22 09:39:33;;;;;;;13.95;5.25;;;;;;;;;;5025344;28;20111;-71
2023/06/22 09:42:02;;;;;;;11.60;5.18;;;;;;;;;;5025892;28;20082;-71
2023/06/22 09:44:28;;;;;;;14.30;4.70;;;;;;;;;;5021678;28;20941;-71
2023/06/22 09:46:53;;;;;;;12.57;4.40;;;;;;;;;;5021520;28;20099;-71
2023/06/22 09:49:18;;;;;;;14.05;5.65;;;;;;;;;;5018545;28;20411;-73
2023/06/22 09:51:44;;;;;;;9.05;4.45;;;;;;;;;;5020836;28;20493;-72
2023/06/22 09:54:09;;;;;;;13.50;5.40;;;;;;;;;;5029808;28;20053;-71
2023/06/22 09:56:34;;;;;;;14.23;5.40;;;;;;;;;;5021029;28;20041;-72
2023/06/22 09:59:00;;;;;;;23.08;5.72;;;;;;;;;;5020460;28;20053;-73
2023/06/22 10:01:25;;;;;;;17.77;5.15;;;;;;;;;;5021204;28;20152;-71
2023/06/22 10:03:55;;;;;;;10.88;5.10;;;;;;;;;;5020930;28;20099;-71
2023/06/22 10:06:21;;;;;;;19.95;5.35;;;;;;;;;;5029507;28;20112;-73
2023/06/22 10:08:48;;;;;;;22.75;5.78;;;;;;;;;;5021150;28;20506;-70
2023/06/22 10:11:13;;;;;;;17.65;6.15;;;;;;;;;;5020038;28;20073;-71
2023/06/22 10:13:39;;;;;;;14.27;5.47;;;;;;;;;;5020821;28;20088;-71
2023/06/22 10:16:04;;;;;;;13.73;5.28;;;;;;;;;;5020887;28;20049;-71
2023/06/22 10:18:30;;;;;;;17.63;5.40;;;;;;;;;;5020577;28;20056;-71
2023/06/22 10:20:56;;;;;;;19.48;5.57;;;;;;;;;;5021290;28;20581;-71
2023/06/22 10:23:22;;;;;;;23.40;5.75;;;;;;;;;;5019322;28;20167;-72
2023/06/22 10:25:48;;;;;;;19.15;5.43;;;;;;;;;;5020893;28;20090;-72
2023/06/22 10:28:14;;;;;;;12.07;5.47;;;;;;;;;;5020210;28;20080;-71
2023/06/22 10:30:43;;;;;;;14.15;4.95;;;;;;;;;;5022993;28;20107;-71
2023/06/22 10:33:12;;;;;;;19.63;5.05;;;;;;;;;;5028913;28;20542;-71
2023/06/22 10:35:38;;;;;;;25.45;5.82;;;;;;;;;;5029518;28;20044;-68
2023/06/22 10:38:04;;;;;;;20.20;5.97;;;;;;;;;;5027386;28;20053;-72
2023/06/22 10:40:29;;;;;;;17.85;5.55;;;;;;;;;;5024759;28;20565;-72
2023/06/22 10:42:55;;;;;;;19.85;5.72;;;;;;;;;;5028374;28;20056;-71
2023/06/22 10:45:20;;;;;;;15.10;5.70;;;;;;;;;;5028944;28;20049;-71
2023/06/22 10:47:46;;;;;;;23.55;5.28;;;;;;;;;;5025092;28;20041;-71
2023/06/22 10:50:11;;;;;;;17.77;5.18;;;;;;;;;;5019073;28;20457;-71
2023/06/22 10:52:37;;;;;;;16.95;4.97;;;;;;;;;;5020160;28;20037;-73
2023/06/22 10:55:03;;;;;;;24.30;5.35;;;;;;;;;;5025831;28;20072;-72
2023/06/22 10:57:29;;;;;;;21.48;5.50;;;;;;;;;;5028019;28;20038;-72
2023/06/22 10:59:54;;;;;;;13.07;4.85;;;;;;;;;;5029438;28;20572;-71
2023/06/22 11:02:20;;;;;;;16.75;5.00;;;;;;;;;;5026497;28;20392;-69
2023/06/22 11:04:46;;;;;;;18.38;5.22;;;;;;;;;;5028480;28;20077;-72
2023/06/22 11:07:11;;;;;;;14.38;5.20;;;;;;;;;;5025217;28;20044;-72
2023/06/22 11:09:38;;;;;;;17.00;5.07;;;;;;;;;;5010003;28;20157;-71
2023/06/22 11:12:04;;;;;;;17.05;5.20;;;;;;;;;;5025747;28;20597;-70
2023/06/22 11:14:29;;;;;;;16.10;4.97;;;;;;;;;;5020015;28;20057;-71
2023/06/22 11:16:56;;;;;;;19.42;5.97;;;;;;;;;;5009578;28;20041;-70
2023/06/22 11:19:21;;;;;;;19.90;5.45;;;;;;;;;;5021397;28;20046;-71
2023/06/22 11:21:46;;;;;;;14.13;4.95;;;;;;;;;;5019894;28;20064;-70
2023/06/22 11:24:12;;;;;;;14.25;5.47;;;;;;;;;;5019794;28;20045;-70
2023/06/22 11:26:37;;;;;;;12.70;5.57;;;;;;;;;;5019631;28;20087;-72
2023/06/22 11:29:06;;;;;;;15.95;5.88;;;;;;;;;;5033847;28;20049;-72
2023/06/22 11:31:32;;;;;;;20.98;5.20;;;;;;;;;;5019762;28;20061;-73
2023/06/22 11:33:57;;;;;;;17.60;5.20;;;;;;;;;;5028036;28;20041;-72
2023/06/22 11:36:23;;;;;;;15.50;5.13;;;;;;;;;;5022946;28;20049;-72
2023/06/22 11:38:48;;;;;;;21.52;5.78;;;;;;;;;;5001538;28;20144;-72
2023/06/22 11:41:14;;;;;;;18.90;5.78;;;;;;;;;;5030952;28;20060;-72
2023/06/22 11:43:39;;;;;;;20.75;4.95;;;;;;;;;;5019998;28;20065;-72
2023/06/22 11:46:05;;;;;;;19.63;5.15;;;;;;;;;;5032385;28;20069;-71
2023/06/22 11:48:30;;;;;;;24.23;5.38;;;;;;;;;;5018313;28;20068;-72
2023/06/22 11:50:56;;;;;;;20.00;5.70;;;;;;;;;;5023572;28;20076;-72
2023/06/22 11:53:24;;;;;;;13.50;4.85;;;;;;;;;;5019995;28;20049;-71
2023/06/22 11:55:50;;;;;;;20.73;5.72;;;;;;;;;;5023286;28;20052;-72
2023/06/22 11:58:16;;;;;;;14.38;4.72;;;;;;;;;;5022907;28;20038;-72
2023/06/22 12:00:41;;;;;;;15.05;5.38;;;;;;;;;;5021932;28;20077;-71
2023/06/22 12:03:07;;;;;;;15.00;4.78;;;;;;;;;;5022788;28;20051;-73
2023/06/22 12:05:33;;;;;;;16.77;4.72;;;;;;;;;;5021096;28;20049;-73
2023/06/22 12:07:58;;;;;;;22.38;4.82;;;;;;;;;;5021147;28;20046;-71
2023/06/22 12:10:25;;;;;;;16.80;4.93;;;;;;;;;;5022371;28;20157;-72
2023/06/22 12:12:51;;;;;;;16.98;4.90;;;;;;;;;;5023059;28;20087;-71
2023/06/22 12:15:16;;;;;;;17.65;4.72;;;;;;;;;;5020931;28;20076;-72
2023/06/22 12:17:42;;;;;;;19.42;5.35;;;;;;;;;;5030827;28;20041;-72
2023/06/22 12:20:08;;;;;;;14.38;5.25;;;;;;;;;;5022633;28;20056;-72
2023/06/22 12:22:34;;;;;;;19.05;5.32;;;;;;;;;;5031071;28;20057;-72
2023/06/22 12:25:00;;;;;;;18.92;5.18;;;;;;;;;;5022066;28;20136;-71
2023/06/22 12:27:25;;;;;;;14.43;5.05;;;;;;;;;;5022100;28;20132;-72
2023/06/22 12:29:51;;;;;;;10.85;4.65;;;;;;;;;;5020921;28;20061;-71
2023/06/22 12:32:16;;;;;;;13.35;4.95;;;;;;;;;;5022605;28;20049;-70
2023/06/22 12:34:42;;;;;;;15.48;5.07;;;;;;;;;;5022833;28;20080;-70
2023/06/22 12:37:08;;;;;;;16.20;5.15;;;;;;;;;;5021773;28;20099;-72
2023/06/22 12:39:34;;;;;;;14.90;4.90;;;;;;;;;;5022647;28;20053;-73
2023/06/22 12:41:59;;;;;;;20.27;5.18;;;;;;;;;;5022158;28;20494;-71
2023/06/22 12:44:25;;;;;;;20.02;5.13;;;;;;;;;;5022620;28;20509;-72
2023/06/22 12:46:50;;;;;;;19.27;4.90;;;;;;;;;;5025897;28;20041;-72
2023/06/22 12:49:16;;;;;;;21.20;4.95;;;;;;;;;;5032189;28;20512;-71
2023/06/22 12:51:42;;;;;;;22.58;5.32;;;;;;;;;;5024202;28;20045;-71
2023/06/22 12:54:08;;;;;;;13.80;4.32;;;;;;;;;;5028335;28;20049;-71
2023/06/22 12:56:34;;;;;;;14.35;4.80;;;;;;;;;;5022170;28;20042;-71
2023/06/22 12:59:02;;;;;;;24.77;5.50;;;;;;;;;;5021093;28;20414;-72
2023/06/22 13:01:28;;;;;;;13.95;4.43;;;;;;;;;;5020983;28;20588;-72
2023/06/22 13:03:54;;;;;;;16.52;5.10;;;;;;;;;;5022195;28;20566;-70
2023/06/22 13:06:19;;;;;;;16.92;4.97;;;;;;;;;;5022109;28;20060;-71
2023/06/22 13:08:45;;;;;;;10.90;4.78;;;;;;;;;;5034307;28;20065;-71
2023/06/22 13:11:10;;;;;;;20.70;4.78;;;;;;;;;;5021206;28;20052;-72
2023/06/22 13:13:36;;;;;;;11.68;4.45;;;;;;;;;;5021508;28;20518;-72
2023/06/22 13:16:01;;;;;;;18.40;5.18;;;;;;;;;;5024350;28;20048;-72
2023/06/22 13:18:27;;;;;;;14.00;4.60;;;;;;;;;;5021798;28;20049;-72
2023/06/22 13:20:54;;;;;;;17.85;4.47;;;;;;;;;;5021109;28;20538;-70
2023/06/22 13:23:22;;;;;;;13.80;4.72;;;;;;;;;;5016737;28;20059;-72
2023/06/22 13:25:48;;;;;;;14.93;4.65;;;;;;;;;;5027936;28;20041;-71
2023/06/22 13:28:15;;;;;;;18.00;4.85;;;;;;;;;;5031794;28;20114;-71
2023/06/22 13:30:41;;;;;;;16.27;4.38;;;;;;;;;;5025387;28;20059;-71
2023/06/22 13:33:07;;;;;;;18.58;5.30;;;;;;;;;;5026445;28;20051;-70
2023/06/22 13:35:32;;;;;;;19.58;5.32;;;;;;;;;;5030284;28;20401;-72
2023/06/22 13:37:58;;;;;;;15.65;4.78;;;;;;;;;;5028135;28;20072;-71
2023/06/22 13:40:23;;;;;;;15.15;5.03;;;;;;;;;;5004894;28;20053;-72
2023/06/22 13:42:49;;;;;;;21.20;5.40;;;;;;;;;;5018709;28;20111;-72
2023/06/22 13:45:17;;;;;;;13.13;4.35;;;;;;;;;;5020586;28;20049;-72
2023/06/22 13:47:42;;;;;;;18.90;4.68;;;;;;;;;;5019877;28;20045;-72
2023/06/22 13:50:08;;;;;;;21.33;5.05;;;;;;;;;;5021383;28;20049;-72
2023/06/22 13:52:34;;;;;;;11.88;4.53;;;;;;;;;;5022384;28;20438;-72
2023/06/22 13:54:59;;;;;;;20.73;4.95;;;;;;;;;;5020421;28;20053;-72
2023/06/22 13:57:24;;;;;;;14.80;5.20;;;;;;;;;;5035068;28;20172;-72
2023/06/22 13:59:50;;;;;;;14.75;4.57;;;;;;;;;;5020781;28;20881;-72
2023/06/22 14:02:15;;;;;;;20.25;5.20;;;;;;;;;;5021356;28;20159;-72
2023/06/22 14:04:41;;;;;;;20.33;5.00;;;;;;;;;;5028034;28;20525;-72
2023/06/22 14:07:06;;;;;;;18.58;4.50;;;;;;;;;;5020355;28;20387;-72
2023/06/22 14:09:32;;;;;;;15.15;4.38;;;;;;;;;;5020816;28;20058;-72
2023/06/22 14:11:57;;;;;;;20.50;5.10;;;;;;;;;;5028400;28;20056;-73
2023/06/22 14:14:22;;;;;;;13.25;4.82;;;;;;;;;;5018365;28;20041;-72
2023/06/22 14:16:49;;;;;;;10.65;4.20;;;;;;;;;;5033566;28;20531;-72
2023/06/22 14:19:17;;;;;;;18.40;4.72;;;;;;;;;;5018498;28;20140;-73
2023/06/22 14:21:43;;;;;;;14.18;4.55;;;;;;;;;;5020009;28;20132;-73
2023/06/22 14:24:08;;;;;;;14.52;5.07;;;;;;;;;;5019165;28;20128;-72
2023/06/22 14:26:34;;;;;;;19.08;4.68;;;;;;;;;;5019599;28;20053;-73